createdAt,value
2018-08-24T00:01:31.617Z,3.50
2018-08-24T00:04:03.411Z,3.40
2018-08-24T00:06:31.684Z,3.03
2018-08-24T00:08:59.999Z,3.30
2018-08-24T00:11:28.282Z,3.20
2018-08-24T00:13:56.572Z,3.20
2018-08-24T00:16:30.394Z,3.23
2018-08-24T00:18:58.670Z,3.30
2018-08-24T00:21:26.966Z,3.00
2018-08-24T00:23:55.237Z,3.00
2018-08-24T00:26:23.526Z,3.00
2018-08-24T00:28:51.811Z,3.30
2018-08-24T00:31:20.097Z,3.37
2018-08-24T00:33:52.506Z,3.10
2018-08-24T00:36:21.994Z,3.90
2018-08-24T00:38:50.270Z,3.20
2018-08-24T00:41:18.562Z,3.63
2018-08-24T00:43:47.162Z,2.67
2018-08-24T00:46:15.461Z,3.00
2018-08-24T00:48:43.953Z,3.20
2018-08-24T00:51:12.228Z,3.60
2018-08-24T00:53:40.938Z,3.63
2018-08-24T00:56:10.170Z,3.03
2018-08-24T00:58:38.963Z,3.30
2018-08-24T01:01:07.842Z,3.50
2018-08-24T01:03:36.434Z,3.30
2018-08-24T01:06:04.926Z,3.20
2018-08-24T01:08:33.239Z,3.50
2018-08-24T01:11:01.559Z,3.50
2018-08-24T01:13:29.842Z,3.43
2018-08-24T01:16:00.234Z,3.47
2018-08-24T01:18:33.774Z,3.60
2018-08-24T01:21:02.062Z,3.53
2018-08-24T01:23:33.624Z,3.50
2018-08-24T01:26:02.758Z,3.80
2018-08-24T01:28:31.832Z,3.97
2018-08-24T01:31:04.539Z,3.53
2018-08-24T01:33:33.308Z,3.57
2018-08-24T01:36:01.583Z,3.63
2018-08-24T01:38:29.866Z,3.57
2018-08-24T01:40:58.134Z,3.67
2018-08-24T01:43:26.402Z,4.00
2018-08-24T01:46:02.043Z,3.73
2018-08-24T01:48:30.315Z,3.90
2018-08-24T01:50:58.703Z,3.80
2018-08-24T01:53:26.979Z,3.87
2018-08-24T01:55:55.297Z,3.83
2018-08-24T01:58:23.563Z,3.60
2018-08-24T02:00:51.847Z,3.83
2018-08-24T02:03:20.129Z,3.73
2018-08-24T02:05:48.396Z,3.40
2018-08-24T02:08:16.664Z,4.00
2018-08-24T02:10:44.939Z,3.60
2018-08-24T02:13:18.743Z,3.30
2018-08-24T02:15:47.828Z,3.97
2018-08-24T02:18:21.546Z,4.40
2018-08-24T02:20:55.188Z,4.67
2018-08-24T02:23:23.467Z,4.53
2018-08-24T02:25:51.729Z,3.87
2018-08-24T02:28:20.000Z,3.90
2018-08-24T02:30:48.293Z,3.87
2018-08-24T02:33:16.567Z,4.10
2018-08-24T02:35:44.835Z,4.17
2018-08-24T02:38:13.098Z,4.70
2018-08-24T02:40:41.377Z,3.80
2018-08-24T02:43:09.690Z,4.30
2018-08-24T02:45:37.971Z,4.00
2018-08-24T02:48:06.240Z,4.40
2018-08-24T02:50:34.517Z,4.13
2018-08-24T02:53:02.870Z,4.03
2018-08-24T02:55:31.171Z,4.33
2018-08-24T02:57:59.450Z,4.60
2018-08-24T03:00:27.735Z,4.47
2018-08-24T03:02:56.019Z,4.50
2018-08-24T03:05:24.415Z,4.50
2018-08-24T03:07:52.548Z,4.40
2018-08-24T03:10:20.794Z,4.67
2018-08-24T03:12:49.055Z,4.47
2018-08-24T03:15:17.303Z,4.47
2018-08-24T03:17:51.033Z,4.50
2018-08-24T03:20:19.289Z,4.90
2018-08-24T03:22:47.576Z,4.50
2018-08-24T03:25:15.941Z,4.60
2018-08-24T03:27:44.203Z,4.53
2018-08-24T03:30:12.475Z,4.73
2018-08-24T03:32:40.750Z,4.87
2018-08-24T03:35:09.020Z,4.83
2018-08-24T03:37:37.367Z,4.80
2018-08-24T03:40:05.937Z,4.47
2018-08-24T03:42:34.185Z,4.27
2018-08-24T03:45:02.452Z,4.40
2018-08-24T03:47:31.719Z,4.97
2018-08-24T03:49:59.973Z,4.60
2018-08-24T03:52:28.235Z,4.87
2018-08-24T03:54:56.487Z,4.70
2018-08-24T03:57:24.742Z,5.10
2018-08-24T03:59:52.982Z,4.90
2018-08-24T04:02:21.252Z,5.03
2018-08-24T04:04:49.508Z,5.40
2018-08-24T04:07:17.759Z,5.20
2018-08-24T04:09:46.004Z,5.40
2018-08-24T04:12:14.333Z,4.40
2018-08-24T04:14:42.570Z,5.27
2018-08-24T04:17:16.195Z,5.27
2018-08-24T04:19:44.448Z,5.73
2018-08-24T04:22:12.715Z,5.33
2018-08-24T04:24:40.959Z,6.00
2018-08-24T04:27:09.223Z,5.73
2018-08-24T04:29:37.490Z,5.43
2018-08-24T04:32:05.823Z,5.37
2018-08-24T04:34:34.110Z,5.30
2018-08-24T04:37:02.489Z,6.10
2018-08-24T04:39:30.830Z,5.30
2018-08-24T04:41:59.164Z,6.50
2018-08-24T04:44:27.434Z,5.83
2018-08-24T04:46:55.790Z,5.70
2018-08-24T04:49:24.054Z,5.87
2018-08-24T04:51:52.318Z,5.50
2018-08-24T04:54:20.579Z,5.10
2018-08-24T04:56:48.855Z,5.40
2018-08-24T04:59:17.119Z,5.10
2018-08-24T05:01:45.389Z,6.17
2018-08-24T05:04:13.664Z,5.57
2018-08-24T05:06:42.062Z,6.00
2018-08-24T05:09:10.930Z,5.63
2018-08-24T05:11:40.051Z,5.20
2018-08-24T05:14:08.935Z,5.30
2018-08-24T05:16:37.225Z,5.60
2018-08-24T05:19:05.666Z,6.30
2018-08-24T05:21:33.947Z,5.53
2018-08-24T05:24:02.212Z,5.67
2018-08-24T05:26:30.492Z,6.30
2018-08-24T05:28:58.754Z,6.23
2018-08-24T05:31:27.039Z,7.07
2018-08-24T05:33:55.295Z,6.30
2018-08-24T05:36:23.559Z,6.57
2018-08-24T05:38:51.828Z,6.60
2018-08-24T05:41:20.127Z,6.50
2018-08-24T05:43:48.718Z,5.90
2018-08-24T05:46:17.054Z,5.67
2018-08-24T05:48:45.958Z,6.47
2018-08-24T05:51:14.242Z,6.50
2018-08-24T05:53:42.520Z,6.33
2018-08-24T05:56:10.806Z,5.97
2018-08-24T05:58:39.125Z,6.17
2018-08-24T06:01:07.430Z,6.17
2018-08-24T06:03:35.756Z,6.03
2018-08-24T06:06:04.971Z,5.60
2018-08-24T06:08:34.095Z,5.67
2018-08-24T06:11:02.914Z,5.67
2018-08-24T06:13:31.191Z,5.60
2018-08-24T06:15:59.514Z,5.97
2018-08-24T06:18:27.875Z,5.23
2018-08-24T06:20:56.355Z,5.10
2018-08-24T06:23:24.757Z,5.30
2018-08-24T06:25:53.488Z,5.30
2018-08-24T06:28:21.750Z,5.00
2018-08-24T06:30:51.237Z,4.77
2018-08-24T06:33:22.931Z,4.90
2018-08-24T06:35:51.945Z,4.60
2018-08-24T06:38:20.268Z,5.27
2018-08-24T06:40:48.547Z,4.80
2018-08-24T06:43:16.972Z,5.00
2018-08-24T06:45:45.290Z,4.83
2018-08-24T06:48:13.555Z,4.97
2018-08-24T06:50:41.824Z,5.03
2018-08-24T06:53:10.198Z,5.17
2018-08-24T06:55:38.468Z,6.03
2018-08-24T06:58:06.742Z,5.90
2018-08-24T07:00:35.026Z,6.40
2018-08-24T07:03:03.459Z,6.03
2018-08-24T07:05:31.928Z,6.23
2018-08-24T07:08:00.287Z,6.83
2018-08-24T07:10:28.603Z,6.23
2018-08-24T07:12:57.231Z,6.37
2018-08-24T07:15:25.581Z,6.37
2018-08-24T07:17:59.316Z,8.13
2018-08-24T07:20:27.602Z,9.10
2018-08-24T07:22:55.875Z,9.80
2018-08-24T07:25:24.379Z,10.67
2018-08-24T07:27:52.872Z,10.23
2018-08-24T07:30:21.171Z,10.67
2018-08-24T07:32:49.560Z,9.80
2018-08-24T07:35:17.913Z,9.50
2018-08-24T07:37:46.196Z,10.20
2018-08-24T07:40:14.625Z,9.00
2018-08-24T07:42:43.015Z,7.70
2018-08-24T07:45:11.392Z,9.88
2018-08-24T07:47:39.774Z,9.33
2018-08-24T07:50:08.431Z,8.88
2018-08-24T07:52:36.913Z,8.28
2018-08-24T07:55:05.942Z,8.03
2018-08-24T07:57:34.711Z,8.10
2018-08-24T08:00:04.005Z,7.47
2018-08-24T08:02:38.585Z,7.22
2018-08-24T08:05:07.166Z,7.45
2018-08-24T08:07:35.718Z,7.78
2018-08-24T08:10:04.449Z,6.80
2018-08-24T08:12:33.164Z,6.95
2018-08-24T08:15:07.466Z,7.87
2018-08-24T08:17:36.503Z,7.10
2018-08-24T08:20:05.602Z,7.05
2018-08-24T08:22:34.416Z,6.45
2018-08-24T08:25:03.199Z,6.50
2018-08-24T08:27:32.293Z,5.95
2018-08-24T08:30:02.966Z,6.22
2018-08-24T08:32:32.134Z,5.03
2018-08-24T08:35:00.824Z,5.62
2018-08-24T08:37:29.415Z,4.58
2018-08-24T08:40:04.580Z,6.17
2018-08-24T08:42:33.297Z,5.35
2018-08-24T08:45:03.268Z,5.20
2018-08-24T08:47:32.049Z,5.37
2018-08-24T08:50:00.633Z,6.00
2018-08-24T08:52:30.116Z,5.17
2018-08-24T08:54:58.778Z,4.47
2018-08-24T08:57:27.396Z,5.95
2018-08-24T08:59:56.051Z,6.05
2018-08-24T09:02:24.652Z,5.58
2018-08-24T09:04:53.156Z,5.25
2018-08-24T09:07:21.990Z,6.05
2018-08-24T09:09:50.951Z,6.47
2018-08-24T09:12:21.215Z,6.62
2018-08-24T09:14:49.917Z,6.10
2018-08-24T09:17:23.839Z,6.08
2018-08-24T09:19:57.967Z,5.70
2018-08-24T09:22:31.731Z,5.33
2018-08-24T09:25:05.807Z,5.37
2018-08-24T09:27:38.461Z,4.37
2018-08-24T09:30:06.998Z,4.97
2018-08-24T09:32:35.685Z,5.80
2018-08-24T09:35:04.112Z,5.25
2018-08-24T09:37:39.867Z,4.60
2018-08-24T09:40:08.749Z,4.77
2018-08-24T09:42:37.239Z,3.70
2018-08-24T09:45:06.334Z,4.40
2018-08-24T09:47:40.483Z,4.13
2018-08-24T09:50:14.271Z,3.93
2018-08-24T09:52:47.396Z,3.40
2018-08-24T09:55:16.195Z,3.30
2018-08-24T09:57:44.830Z,3.30
2018-08-24T10:00:13.336Z,2.30
2018-08-24T10:02:43.503Z,2.27
2018-08-24T10:05:17.970Z,2.20
2018-08-24T10:08:55.689Z,2.10
2018-08-24T10:11:24.199Z,2.00
2018-08-24T10:13:52.814Z,1.65
2018-08-24T10:16:21.358Z,1.75
2018-08-24T10:18:50.235Z,1.90
2018-08-24T10:21:18.993Z,1.57
2018-08-24T10:23:47.674Z,1.52
2018-08-24T10:26:16.360Z,1.80
2018-08-24T10:28:45.028Z,2.00
2018-08-24T10:31:13.859Z,2.02
2018-08-24T10:33:42.473Z,2.10
2018-08-24T10:36:11.252Z,2.10
2018-08-24T10:38:39.824Z,2.12
2018-08-24T10:41:08.638Z,2.33
2018-08-24T10:43:37.157Z,2.33
2018-08-24T10:46:05.992Z,2.50
2018-08-24T10:48:34.639Z,2.40
2018-08-24T10:51:03.372Z,2.30
2018-08-24T10:53:32.173Z,2.53
2018-08-24T10:56:01.593Z,2.70
2018-08-24T10:58:30.564Z,2.80
2018-08-24T11:00:58.944Z,2.77
2018-08-24T11:03:27.358Z,2.75
2018-08-24T11:05:55.639Z,2.47
2018-08-24T11:08:23.997Z,2.67
2018-08-24T11:10:52.276Z,2.72
2018-08-24T11:13:20.592Z,3.00
2018-08-24T11:15:49.601Z,2.60
2018-08-24T11:18:18.293Z,2.63
2018-08-24T11:20:46.864Z,2.50
2018-08-24T11:23:15.248Z,3.07
2018-08-24T11:25:43.538Z,2.50
2018-08-24T11:28:11.799Z,2.53
2018-08-24T11:30:40.063Z,3.03
2018-08-24T11:33:08.344Z,2.50
2018-08-24T11:35:36.620Z,2.80
2018-08-24T11:38:04.919Z,2.83
2018-08-24T11:40:33.207Z,2.87
2018-08-24T11:43:01.486Z,2.63
2018-08-24T11:45:29.781Z,2.87
2018-08-24T11:47:58.169Z,2.50
2018-08-24T11:50:26.355Z,2.60
2018-08-24T11:52:54.641Z,2.70
2018-08-24T11:55:22.926Z,2.90
2018-08-24T11:57:51.230Z,2.50
2018-08-24T12:00:22.094Z,2.60
2018-08-24T12:02:51.215Z,2.70
2018-08-24T12:05:19.503Z,2.40
2018-08-24T12:07:47.809Z,2.50
2018-08-24T12:10:16.072Z,2.47
2018-08-24T12:12:44.366Z,2.00
2018-08-24T12:15:12.632Z,2.30
2018-08-24T12:17:40.947Z,2.50
2018-08-24T12:20:09.245Z,2.30
2018-08-24T12:22:37.539Z,2.20
2018-08-24T12:25:05.979Z,2.53
2018-08-24T12:27:34.267Z,2.67
2018-08-24T12:30:02.560Z,2.57
2018-08-24T12:32:30.822Z,2.20
2018-08-24T12:34:59.098Z,2.67
2018-08-24T12:37:27.371Z,2.77
2018-08-24T12:39:55.702Z,2.80
2018-08-24T12:42:24.030Z,2.90
2018-08-24T12:44:52.326Z,2.73
2018-08-24T12:47:20.621Z,2.97
2018-08-24T12:49:48.887Z,2.63
2018-08-24T12:52:17.142Z,2.87
2018-08-24T12:54:45.399Z,2.70
2018-08-24T12:57:13.650Z,3.27
2018-08-24T12:59:41.920Z,3.20
2018-08-24T13:02:10.175Z,3.50
2018-08-24T13:04:38.439Z,4.10
2018-08-24T13:07:06.704Z,4.20
2018-08-24T13:09:34.987Z,3.80
2018-08-24T13:12:03.248Z,3.83
2018-08-24T13:14:31.530Z,4.00
2018-08-24T13:16:59.783Z,3.50
2018-08-24T13:19:28.038Z,3.80
2018-08-24T13:21:56.298Z,3.43
2018-08-24T13:24:24.589Z,3.50
2018-08-24T13:26:52.844Z,3.70
2018-08-24T13:29:21.099Z,3.30
2018-08-24T13:31:49.363Z,3.57
2018-08-24T13:34:17.650Z,3.40
2018-08-24T13:36:45.922Z,3.30
2018-08-24T13:39:14.203Z,3.30
2018-08-24T13:41:42.493Z,3.93
2018-08-24T13:44:10.768Z,3.40
2018-08-24T13:46:39.108Z,3.00
2018-08-24T13:49:07.377Z,3.50
2018-08-24T13:51:35.654Z,4.03
2018-08-24T13:54:03.927Z,3.53
2018-08-24T13:56:32.200Z,3.80
2018-08-24T13:59:00.447Z,3.53
2018-08-24T14:01:28.788Z,3.33
2018-08-24T14:03:57.075Z,3.17
2018-08-24T14:06:25.335Z,3.67
2018-08-24T14:08:53.599Z,3.47
2018-08-24T14:11:22.031Z,3.93
2018-08-24T14:13:50.347Z,3.10
2018-08-24T14:16:18.599Z,3.60
2018-08-24T14:18:47.662Z,3.47
2018-08-24T14:21:16.014Z,3.87
2018-08-24T14:23:44.353Z,3.40
2018-08-24T14:26:12.904Z,3.63
2018-08-24T14:28:41.259Z,3.77
2018-08-24T14:31:09.536Z,4.00
2018-08-24T14:33:37.791Z,3.47
2018-08-24T14:36:06.068Z,4.30
2018-08-24T14:38:39.683Z,4.00
2018-08-24T14:41:08.113Z,4.33
2018-08-24T14:43:36.398Z,3.87
2018-08-24T14:46:06.598Z,4.00
2018-08-24T14:48:35.103Z,4.03
2018-08-24T14:51:03.396Z,4.10
2018-08-24T14:53:31.666Z,3.70
2018-08-24T14:55:59.919Z,4.13
2018-08-24T14:58:28.185Z,4.23
2018-08-24T15:00:56.425Z,4.50
2018-08-24T15:03:24.699Z,4.40
2018-08-24T15:05:52.970Z,4.53
2018-08-24T15:08:21.352Z,4.37
2018-08-24T15:10:49.604Z,4.57
2018-08-24T15:13:17.860Z,4.70
2018-08-24T15:15:46.103Z,4.40
2018-08-24T15:18:14.362Z,4.57
2018-08-24T15:20:42.691Z,4.70
2018-08-24T15:23:11.367Z,4.90
2018-08-24T15:25:39.931Z,4.63
2018-08-24T15:28:08.209Z,4.60
2018-08-24T15:30:36.481Z,5.87
2018-08-24T15:33:05.132Z,5.27
2018-08-24T15:35:33.427Z,5.20
2018-08-24T15:38:01.691Z,5.20
2018-08-24T15:40:48.286Z,5.00
2018-08-24T15:43:16.567Z,5.03
2018-08-24T15:45:44.828Z,5.40
2018-08-24T15:48:13.083Z,5.43
2018-08-24T15:50:41.346Z,5.10
2018-08-24T15:53:09.618Z,5.20
2018-08-24T15:55:37.943Z,5.00
2018-08-24T15:58:06.194Z,6.03
2018-08-24T16:00:34.448Z,5.73
2018-08-24T16:03:02.715Z,5.90
2018-08-24T16:05:31.003Z,5.90
2018-08-24T16:07:59.268Z,5.10
2018-08-24T16:10:27.838Z,6.07
2018-08-24T16:12:56.099Z,6.03
2018-08-24T16:15:24.349Z,5.73
2018-08-24T16:17:58.003Z,6.27
2018-08-24T16:20:26.238Z,6.80
2018-08-24T16:22:54.510Z,6.27
2018-08-24T16:25:23.715Z,7.03
2018-08-24T16:27:52.005Z,6.23
2018-08-24T16:30:20.388Z,6.80
2018-08-24T16:32:48.650Z,6.37
2018-08-24T16:35:17.447Z,6.10
2018-08-24T16:37:46.054Z,6.80
2018-08-24T16:40:14.303Z,6.13
2018-08-24T16:42:42.700Z,6.53
2018-08-24T16:45:11.284Z,6.77
2018-08-24T16:47:40.093Z,6.80
2018-08-24T16:50:09.811Z,7.13
2018-08-24T16:52:39.110Z,6.53
2018-08-24T16:55:08.410Z,6.03
2018-08-24T16:57:37.590Z,7.73
2018-08-24T17:00:09.517Z,6.13
2018-08-24T17:02:38.918Z,7.33
2018-08-24T17:05:08.297Z,7.10
2018-08-24T17:07:37.485Z,6.80
2018-08-24T17:10:07.582Z,6.77
2018-08-24T17:12:36.659Z,6.97
2018-08-24T17:15:05.863Z,6.60
2018-08-24T17:17:34.427Z,6.80
2018-08-24T17:20:03.201Z,6.63
2018-08-24T17:22:32.410Z,6.80
2018-08-24T17:25:00.834Z,6.60
2018-08-24T17:27:29.757Z,6.50
2018-08-24T17:29:58.293Z,6.50
2018-08-24T17:32:26.942Z,7.20
2018-08-24T17:34:55.495Z,6.77
2018-08-24T17:37:24.189Z,6.30
2018-08-24T17:39:52.734Z,6.87
2018-08-24T17:42:21.270Z,7.23
2018-08-24T17:44:50.145Z,7.43
2018-08-24T17:47:18.507Z,7.53
2018-08-24T17:49:46.980Z,6.90
2018-08-24T17:52:15.518Z,7.00
2018-08-24T17:54:44.280Z,6.90
2018-08-24T17:57:12.798Z,7.27
2018-08-24T17:59:41.334Z,6.90
2018-08-24T18:02:10.155Z,6.80
2018-08-24T18:04:38.627Z,6.63
2018-08-24T18:07:07.234Z,6.47
2018-08-24T18:09:35.943Z,7.37
2018-08-24T18:12:05.179Z,7.03
2018-08-24T18:14:34.063Z,7.80
2018-08-24T18:17:03.179Z,6.80
2018-08-24T18:19:31.983Z,7.13
2018-08-24T18:22:00.647Z,7.20
2018-08-24T18:24:29.555Z,7.13
2018-08-24T18:26:58.230Z,7.30
2018-08-24T18:29:26.667Z,7.30
2018-08-24T18:31:55.461Z,6.80
2018-08-24T18:34:24.206Z,7.10
2018-08-24T18:36:52.783Z,7.27
2018-08-24T18:39:21.364Z,6.47
2018-08-24T18:41:50.343Z,7.00
2018-08-24T18:44:18.922Z,7.07
2018-08-24T18:46:47.475Z,6.50
2018-08-24T18:49:16.040Z,6.73
2018-08-24T18:51:44.710Z,6.50
2018-08-24T18:54:13.300Z,7.00
2018-08-24T18:56:41.889Z,6.83
2018-08-24T18:59:10.488Z,6.83
2018-08-24T19:01:39.088Z,6.90
2018-08-24T19:04:07.790Z,7.30
2018-08-24T19:06:36.447Z,7.00
2018-08-24T19:09:07.515Z,6.80
2018-08-24T19:11:41.870Z,7.63
2018-08-24T19:14:10.713Z,6.97
2018-08-24T19:16:39.265Z,6.67
2018-08-24T19:19:13.288Z,7.97
2018-08-24T19:21:44.102Z,8.23
2018-08-24T19:24:13.100Z,8.63
2018-08-24T19:26:41.839Z,7.93
2018-08-24T19:29:15.760Z,8.57
2018-08-24T19:31:44.394Z,8.00
2018-08-24T19:34:13.408Z,7.93
2018-08-24T19:36:42.049Z,7.90
2018-08-24T19:39:13.679Z,7.67
2018-08-24T19:41:47.509Z,7.83
2018-08-24T19:44:16.283Z,8.33
2018-08-24T19:46:45.350Z,7.87
2018-08-24T19:49:17.262Z,7.53
2018-08-24T19:51:45.921Z,7.87
2018-08-24T19:54:15.288Z,7.73
2018-08-24T19:56:44.295Z,7.93
2018-08-24T19:59:14.168Z,8.00
2018-08-24T20:01:42.627Z,7.93
2018-08-24T20:04:11.074Z,8.03
2018-08-24T20:06:44.785Z,8.03
2018-08-24T20:09:18.786Z,7.40
2018-08-24T20:11:51.406Z,8.00
2018-08-24T20:14:25.504Z,7.67
2018-08-24T20:16:59.347Z,8.50
2018-08-24T20:19:28.529Z,8.03
2018-08-24T20:21:56.994Z,7.97
2018-08-24T20:24:25.559Z,7.77
2018-08-24T20:26:53.830Z,7.57
2018-08-24T20:29:22.190Z,8.47
2018-08-24T20:31:50.623Z,7.20
2018-08-24T20:34:19.032Z,7.80
2018-08-24T20:36:47.365Z,8.23
2018-08-24T20:39:15.965Z,7.50
2018-08-24T20:41:44.305Z,7.33
2018-08-24T20:44:12.757Z,7.53
2018-08-24T20:46:41.006Z,7.20
2018-08-24T20:49:09.349Z,7.63
2018-08-24T20:51:37.815Z,7.43
2018-08-24T20:54:06.227Z,7.50
2018-08-24T20:56:34.703Z,6.83
2018-08-24T20:59:03.302Z,6.87
2018-08-24T21:01:31.936Z,7.30
2018-08-24T21:04:00.395Z,7.40
2018-08-24T21:06:28.816Z,7.27
2018-08-24T21:08:57.131Z,6.63
2018-08-24T21:11:25.511Z,6.50
2018-08-24T21:13:53.894Z,7.30
2018-08-24T21:16:22.523Z,6.80
2018-08-24T21:18:50.907Z,7.20
2018-08-24T21:21:19.171Z,6.77
2018-08-24T21:23:47.562Z,7.83
2018-08-24T21:26:15.994Z,6.73
2018-08-24T21:28:44.538Z,6.57
2018-08-24T21:31:12.967Z,6.73
2018-08-24T21:33:41.421Z,6.57
2018-08-24T21:36:09.974Z,6.50
2018-08-24T21:38:38.352Z,6.30
2018-08-24T21:41:06.622Z,6.73
2018-08-24T21:43:34.922Z,6.43
2018-08-24T21:46:03.757Z,6.27
2018-08-24T21:48:32.944Z,5.50
2018-08-24T21:51:01.521Z,5.93
2018-08-24T21:53:29.769Z,5.47
2018-08-24T21:55:58.119Z,5.80
2018-08-24T21:58:26.407Z,5.80
2018-08-24T22:00:54.682Z,5.40
2018-08-24T22:03:22.950Z,6.00
2018-08-24T22:05:51.234Z,5.53
2018-08-24T22:08:19.472Z,5.43
2018-08-24T22:10:47.710Z,6.07
2018-08-24T22:13:15.976Z,5.40
2018-08-24T22:15:44.221Z,5.97
2018-08-24T22:18:12.468Z,5.13
2018-08-24T22:20:40.717Z,5.80
2018-08-24T22:23:08.958Z,5.63
2018-08-24T22:25:37.192Z,5.93
2018-08-24T22:28:05.466Z,5.90
2018-08-24T22:30:33.712Z,5.63
2018-08-24T22:33:01.949Z,5.53
2018-08-24T22:35:30.193Z,5.00
2018-08-24T22:37:58.452Z,5.03
2018-08-24T22:40:26.764Z,4.87
2018-08-24T22:42:55.002Z,4.93
2018-08-24T22:45:24.307Z,5.20
2018-08-24T22:47:53.070Z,5.33
2018-08-24T22:50:21.575Z,5.50
2018-08-24T22:52:49.891Z,4.80
2018-08-24T22:55:18.138Z,4.97
2018-08-24T22:57:46.392Z,5.43
2018-08-24T23:00:14.646Z,5.03
2018-08-24T23:02:42.913Z,4.77
2018-08-24T23:05:11.206Z,4.60
2018-08-24T23:07:39.459Z,4.70
2018-08-24T23:10:07.731Z,5.47
2018-08-24T23:12:35.986Z,5.27
2018-08-24T23:15:04.265Z,5.30
2018-08-24T23:17:32.514Z,4.60
2018-08-24T23:20:00.808Z,4.87
2018-08-24T23:22:29.058Z,4.67
2018-08-24T23:24:57.386Z,5.47
2018-08-24T23:27:25.644Z,5.40
2018-08-24T23:29:53.890Z,4.70
2018-08-24T23:32:22.146Z,4.90
2018-08-24T23:34:50.405Z,4.80
2018-08-24T23:37:18.677Z,5.17
2018-08-24T23:39:46.932Z,4.97
2018-08-24T23:42:15.184Z,4.63
2018-08-24T23:44:43.427Z,4.60
2018-08-24T23:47:11.691Z,5.07
2018-08-24T23:49:39.937Z,5.37
2018-08-24T23:52:08.276Z,4.60
2018-08-24T23:54:36.519Z,5.03
2018-08-24T23:57:04.766Z,5.20
2018-08-24T23:59:33.002Z,4.90
